NKS878 KMCO-KPNS
Flight info
| Callsign | NKS878 |
|---|---|
| Flight time | 1h 17m |
| Altitude | 36000 |
| Route | RDSOX1 JFRYS PATOY Q116 JAWJA CABLO DEFUN CEW J2 INBRD PENSI |
| Aircraft | A20N/M-SDE2E3FGHIRWXY/LB1 |
Departure
| Time | 2026-04-21 19:34 |
|---|---|
| Airport | Orlando International Airport (KMCO) |
Arrival
| Time | 2026-04-21 20:51 |
|---|---|
| Airport | Pensacola International Airport (KPNS) |
| Time | Latitude | Longitude | Altitude | Speed | Heading |
|---|---|---|---|---|---|
| 2026-04-21 19:16 | 28.43418 | -81.31583 | 102 ft | 0 kts | 117° |
| 2026-04-21 19:17 | 28.43418 | -81.31582 | 102 ft | 0 kts | 117° |
| 2026-04-21 19:19 | 28.43418 | -81.31583 | 102 ft | 0 kts | 117° |
| 2026-04-21 19:23 | 28.43420 | -81.31586 | 101 ft | 2 kts | 117° |
| 2026-04-21 19:24 | 28.43428 | -81.31602 | 102 ft | 3 kts | 118° |
| 2026-04-21 19:24 | 28.43436 | -81.31621 | 100 ft | 3 kts | 118° |
| 2026-04-21 19:24 | 28.43445 | -81.31641 | 100 ft | 3 kts | 117° |
| 2026-04-21 19:24 | 28.43457 | -81.31662 | 100 ft | 3 kts | 137° |
| 2026-04-21 19:25 | 28.43477 | -81.31671 | 100 ft | 2 kts | 183° |
| 2026-04-21 19:27 | 28.43464 | -81.31673 | 98 ft | 6 kts | 188° |
| 2026-04-21 19:27 | 28.43387 | -81.31689 | 102 ft | 15 kts | 192° |
| 2026-04-21 19:27 | 28.43289 | -81.31724 | 102 ft | 14 kts | 219° |
| 2026-04-21 19:28 | 28.43225 | -81.31828 | 101 ft | 18 kts | 236° |
| 2026-04-21 19:28 | 28.43151 | -81.31952 | 101 ft | 19 kts | 236° |
| 2026-04-21 19:28 | 28.43098 | -81.31993 | 101 ft | 8 kts | 180° |
| 2026-04-21 19:28 | 28.43027 | -81.31993 | 102 ft | 12 kts | 179° |
| 2026-04-21 19:29 | 28.42923 | -81.31992 | 102 ft | 18 kts | 180° |
| 2026-04-21 19:29 | 28.42786 | -81.31991 | 104 ft | 21 kts | 179° |
| 2026-04-21 19:29 | 28.42629 | -81.31990 | 108 ft | 24 kts | 180° |
| 2026-04-21 19:29 | 28.42452 | -81.31988 | 108 ft | 27 kts | 179° |
| 2026-04-21 19:30 | 28.42264 | -81.31985 | 109 ft | 27 kts | 178° |
| 2026-04-21 19:30 | 28.42067 | -81.31983 | 105 ft | 30 kts | 180° |
| 2026-04-21 19:30 | 28.41855 | -81.31981 | 102 ft | 31 kts | 179° |
| 2026-04-21 19:30 | 28.41640 | -81.31976 | 99 ft | 24 kts | 179° |
| 2026-04-21 19:31 | 28.41550 | -81.31994 | 99 ft | 9 kts | 234° |
| 2026-04-21 19:31 | 28.41543 | -81.32067 | 100 ft | 10 kts | 269° |
| 2026-04-21 19:31 | 28.41543 | -81.32078 | 100 ft | 0 kts | 269° |
| 2026-04-21 19:32 | 28.41543 | -81.32080 | 101 ft | 1 kts | 269° |
| 2026-04-21 19:32 | 28.41543 | -81.32122 | 101 ft | 10 kts | 269° |
| 2026-04-21 19:32 | 28.41549 | -81.32190 | 101 ft | 7 kts | 308° |
| 2026-04-21 19:32 | 28.41604 | -81.32197 | 101 ft | 10 kts | 0° |
| 2026-04-21 19:33 | 28.41652 | -81.32197 | 99 ft | 12 kts | 360° |
| 2026-04-21 19:33 | 28.41980 | -81.32201 | 105 ft | 75 kts | 359° |
| 2026-04-21 19:33 | 28.42707 | -81.32209 | 106 ft | 131 kts | 0° |
| 2026-04-21 19:33 | 28.43767 | -81.32223 | 125 ft | 171 kts | 2° |
| 2026-04-21 19:34 | 28.44907 | -81.32262 | 780 ft | 160 kts | 8° |
| 2026-04-21 19:34 | 28.46008 | -81.32231 | 1457 ft | 157 kts | 10° |
| 2026-04-21 19:34 | 28.47131 | -81.32185 | 2025 ft | 167 kts | 8° |
| 2026-04-21 19:34 | 28.48338 | -81.32163 | 2564 ft | 180 kts | 7° |
| 2026-04-21 19:35 | 28.49674 | -81.32163 | 2936 ft | 206 kts | 4° |
| 2026-04-21 19:35 | 28.52836 | -81.32437 | 4152 ft | 245 kts | 355° |
| 2026-04-21 19:35 | 28.54513 | -81.32792 | 5146 ft | 247 kts | 349° |
| 2026-04-21 19:36 | 28.56143 | -81.33484 | 6076 ft | 253 kts | 339° |
| 2026-04-21 19:36 | 28.57732 | -81.34322 | 7085 ft | 251 kts | 337° |
| 2026-04-21 19:36 | 28.59112 | -81.35569 | 7962 ft | 260 kts | 309° |
| 2026-04-21 19:36 | 28.59844 | -81.37463 | 8823 ft | 268 kts | 280° |
| 2026-04-21 19:37 | 28.59933 | -81.39598 | 9620 ft | 278 kts | 271° |
| 2026-04-21 19:37 | 28.59858 | -81.41872 | 10186 ft | 295 kts | 269° |
| 2026-04-21 19:37 | 28.59756 | -81.44277 | 10567 ft | 316 kts | 269° |
| 2026-04-21 19:37 | 28.59671 | -81.46865 | 10873 ft | 337 kts | 268° |
| 2026-04-21 19:38 | 28.59334 | -81.49541 | 11556 ft | 345 kts | 258° |
| 2026-04-21 19:38 | 28.58599 | -81.52155 | 12387 ft | 350 kts | 249° |
| 2026-04-21 19:38 | 28.57928 | -81.53829 | 12926 ft | 352 kts | 247° |
| 2026-04-21 19:38 | 28.56550 | -81.57240 | 13973 ft | 357 kts | 248° |
| 2026-04-21 19:39 | 28.55519 | -81.59811 | 14718 ft | 359 kts | 248° |
| 2026-04-21 19:39 | 28.54479 | -81.62412 | 15445 ft | 361 kts | 248° |
| 2026-04-21 19:39 | 28.53435 | -81.65018 | 16169 ft | 363 kts | 248° |
| 2026-04-21 19:39 | 28.52384 | -81.67638 | 16869 ft | 366 kts | 248° |
| 2026-04-21 19:40 | 28.51323 | -81.70281 | 17565 ft | 369 kts | 248° |
| 2026-04-21 19:40 | 28.50254 | -81.72940 | 18236 ft | 372 kts | 248° |
| 2026-04-21 19:40 | 28.49173 | -81.75630 | 18875 ft | 374 kts | 248° |
| 2026-04-21 19:40 | 28.48087 | -81.78326 | 19494 ft | 376 kts | 248° |
| 2026-04-21 19:41 | 28.46996 | -81.81034 | 20132 ft | 377 kts | 248° |
| 2026-04-21 19:41 | 28.45902 | -81.83749 | 20764 ft | 378 kts | 248° |
| 2026-04-21 19:41 | 28.44803 | -81.86471 | 21397 ft | 379 kts | 248° |
| 2026-04-21 19:41 | 28.43738 | -81.89217 | 22007 ft | 379 kts | 252° |
| 2026-04-21 19:42 | 28.43002 | -81.92080 | 22621 ft | 377 kts | 261° |
| 2026-04-21 19:42 | 28.42659 | -81.94988 | 23219 ft | 376 kts | 269° |
| 2026-04-21 19:42 | 28.42665 | -81.97956 | 23823 ft | 376 kts | 273° |
| 2026-04-21 19:42 | 28.42727 | -82.00970 | 24301 ft | 378 kts | 273° |
| 2026-04-21 19:43 | 28.42779 | -82.03973 | 24723 ft | 382 kts | 273° |
| 2026-04-21 19:43 | 28.42828 | -82.07000 | 25141 ft | 385 kts | 273° |
| 2026-04-21 19:43 | 28.42875 | -82.10045 | 25569 ft | 387 kts | 273° |
| 2026-04-21 19:43 | 28.42923 | -82.13117 | 25990 ft | 390 kts | 273° |
| 2026-04-21 19:44 | 28.42969 | -82.16162 | 26400 ft | 392 kts | 273° |
| 2026-04-21 19:44 | 28.43016 | -82.19273 | 26790 ft | 395 kts | 273° |
| 2026-04-21 19:44 | 28.43064 | -82.22405 | 27178 ft | 398 kts | 273° |
| 2026-04-21 19:44 | 28.43111 | -82.25599 | 27570 ft | 400 kts | 273° |
| 2026-04-21 19:45 | 28.43156 | -82.28726 | 27946 ft | 403 kts | 274° |
| 2026-04-21 19:45 | 28.43202 | -82.31920 | 28307 ft | 405 kts | 274° |
| 2026-04-21 19:45 | 28.43247 | -82.35134 | 28665 ft | 408 kts | 274° |
| 2026-04-21 19:45 | 28.43292 | -82.38365 | 29009 ft | 410 kts | 274° |
| 2026-04-21 19:46 | 28.43588 | -82.41576 | 29330 ft | 409 kts | 284° |
| 2026-04-21 19:46 | 28.44439 | -82.44657 | 29639 ft | 410 kts | 294° |
| 2026-04-21 19:46 | 28.45818 | -82.47489 | 29950 ft | 411 kts | 305° |
| 2026-04-21 19:46 | 28.47671 | -82.49969 | 30270 ft | 414 kts | 315° |
| 2026-04-21 19:47 | 28.49941 | -82.52000 | 30549 ft | 418 kts | 326° |
| 2026-04-21 19:47 | 28.52453 | -82.53679 | 30861 ft | 420 kts | 327° |
| 2026-04-21 19:47 | 28.54980 | -82.55359 | 31163 ft | 421 kts | 327° |
| 2026-04-21 19:47 | 28.57507 | -82.57046 | 31498 ft | 422 kts | 327° |
| 2026-04-21 19:48 | 28.60036 | -82.58738 | 31896 ft | 420 kts | 327° |
| 2026-04-21 19:48 | 28.62548 | -82.60421 | 32313 ft | 418 kts | 327° |
| 2026-04-21 19:48 | 28.65046 | -82.62095 | 32735 ft | 416 kts | 327° |
| 2026-04-21 19:48 | 28.67536 | -82.63765 | 33133 ft | 414 kts | 327° |
| 2026-04-21 19:49 | 28.70011 | -82.65427 | 33523 ft | 412 kts | 327° |
| 2026-04-21 19:49 | 28.72477 | -82.67083 | 33904 ft | 410 kts | 327° |
| 2026-04-21 19:49 | 28.74896 | -82.68708 | 34263 ft | 409 kts | 327° |
| 2026-04-21 19:49 | 28.77372 | -82.70372 | 34561 ft | 407 kts | 327° |
| 2026-04-21 19:50 | 28.78988 | -82.71459 | 34718 ft | 407 kts | 327° |
| 2026-04-21 19:50 | 28.82255 | -82.73656 | 35030 ft | 407 kts | 326° |
| 2026-04-21 19:50 | 28.84664 | -82.75277 | 35252 ft | 407 kts | 326° |
| 2026-04-21 19:50 | 28.87104 | -82.76920 | 35478 ft | 407 kts | 326° |
| 2026-04-21 19:51 | 28.89545 | -82.78565 | 35689 ft | 407 kts | 326° |
| 2026-04-21 19:51 | 28.92020 | -82.80232 | 35897 ft | 408 kts | 326° |
| 2026-04-21 19:51 | 28.94426 | -82.81855 | 36101 ft | 407 kts | 325° |
| 2026-04-21 19:51 | 28.96865 | -82.83501 | 36254 ft | 408 kts | 325° |
| 2026-04-21 19:52 | 28.99308 | -82.85151 | 36257 ft | 407 kts | 325° |
| 2026-04-21 19:52 | 29.04170 | -82.88438 | 36254 ft | 406 kts | 325° |
| 2026-04-21 19:53 | 29.08878 | -82.91963 | 36251 ft | 404 kts | 320° |
| 2026-04-21 19:53 | 29.13444 | -82.95697 | 36252 ft | 403 kts | 321° |
| 2026-04-21 19:54 | 29.18011 | -82.99419 | 36251 ft | 403 kts | 321° |
| 2026-04-21 19:54 | 29.22578 | -83.03151 | 36255 ft | 403 kts | 321° |
| 2026-04-21 19:55 | 29.27147 | -83.06892 | 36259 ft | 404 kts | 321° |
| 2026-04-21 19:55 | 29.31713 | -83.10635 | 36260 ft | 404 kts | 321° |
| 2026-04-21 19:56 | 29.36280 | -83.14383 | 36262 ft | 404 kts | 321° |
| 2026-04-21 19:56 | 29.40074 | -83.17500 | 36264 ft | 404 kts | 321° |
| 2026-04-21 19:57 | 29.44636 | -83.21251 | 36261 ft | 404 kts | 321° |
| 2026-04-21 19:57 | 29.49197 | -83.25006 | 36263 ft | 403 kts | 321° |
| 2026-04-21 19:58 | 29.54491 | -83.29370 | 36262 ft | 403 kts | 320° |
| 2026-04-21 19:58 | 29.58305 | -83.32517 | 36262 ft | 403 kts | 320° |
| 2026-04-21 19:59 | 29.62856 | -83.36276 | 36261 ft | 403 kts | 320° |
| 2026-04-21 19:59 | 29.67403 | -83.40036 | 36259 ft | 402 kts | 320° |
| 2026-04-21 20:00 | 29.71944 | -83.43796 | 36261 ft | 402 kts | 320° |
| 2026-04-21 20:00 | 29.76453 | -83.47534 | 36260 ft | 402 kts | 320° |
| 2026-04-21 20:01 | 29.80989 | -83.51297 | 36265 ft | 402 kts | 320° |
| 2026-04-21 20:01 | 29.85520 | -83.55062 | 36267 ft | 401 kts | 320° |
| 2026-04-21 20:02 | 29.90051 | -83.58828 | 36264 ft | 401 kts | 320° |
| 2026-04-21 20:02 | 29.94567 | -83.62586 | 36266 ft | 401 kts | 320° |
| 2026-04-21 20:03 | 29.99087 | -83.66351 | 36265 ft | 401 kts | 320° |
| 2026-04-21 20:03 | 30.03613 | -83.70125 | 36265 ft | 401 kts | 320° |
| 2026-04-21 20:04 | 30.08134 | -83.73900 | 36266 ft | 401 kts | 320° |
| 2026-04-21 20:04 | 30.12660 | -83.77683 | 36264 ft | 402 kts | 320° |
| 2026-04-21 20:05 | 30.16871 | -83.81875 | 36268 ft | 398 kts | 311° |
| 2026-04-21 20:05 | 30.20413 | -83.86765 | 36268 ft | 396 kts | 303° |
| 2026-04-21 20:06 | 30.23527 | -83.92019 | 36265 ft | 396 kts | 303° |
| 2026-04-21 20:06 | 30.26655 | -83.97272 | 36266 ft | 397 kts | 303° |
| 2026-04-21 20:07 | 30.29778 | -84.02539 | 36270 ft | 397 kts | 303° |
| 2026-04-21 20:07 | 30.32897 | -84.07815 | 36272 ft | 397 kts | 302° |
| 2026-04-21 20:08 | 30.36017 | -84.13098 | 36269 ft | 397 kts | 302° |
| 2026-04-21 20:08 | 30.39133 | -84.18385 | 36271 ft | 398 kts | 302° |
| 2026-04-21 20:09 | 30.42255 | -84.23686 | 36268 ft | 398 kts | 302° |
| 2026-04-21 20:09 | 30.45354 | -84.28955 | 36271 ft | 398 kts | 302° |
| 2026-04-21 20:10 | 30.48473 | -84.34268 | 36270 ft | 399 kts | 302° |
| 2026-04-21 20:10 | 30.51598 | -84.39595 | 36267 ft | 399 kts | 302° |
| 2026-04-21 20:11 | 30.54719 | -84.44924 | 36270 ft | 399 kts | 302° |
| 2026-04-21 20:11 | 30.57839 | -84.50258 | 36268 ft | 400 kts | 302° |
| 2026-04-21 20:12 | 30.60962 | -84.55605 | 36266 ft | 400 kts | 302° |
| 2026-04-21 20:12 | 30.64086 | -84.60959 | 36267 ft | 401 kts | 302° |
| 2026-04-21 20:13 | 30.67210 | -84.66322 | 36270 ft | 401 kts | 302° |
| 2026-04-21 20:13 | 30.70335 | -84.71695 | 36274 ft | 401 kts | 302° |
| 2026-04-21 20:14 | 30.73461 | -84.77074 | 36276 ft | 402 kts | 302° |
| 2026-04-21 20:14 | 30.76185 | -84.82712 | 36279 ft | 400 kts | 291° |
| 2026-04-21 20:15 | 30.77576 | -84.88952 | 36270 ft | 400 kts | 277° |
| 2026-04-21 20:15 | 30.77860 | -84.95427 | 36262 ft | 402 kts | 274° |
| 2026-04-21 20:16 | 30.78091 | -85.01878 | 36269 ft | 402 kts | 274° |
| 2026-04-21 20:16 | 30.78317 | -85.08381 | 36272 ft | 403 kts | 274° |
| 2026-04-21 20:17 | 30.78537 | -85.14938 | 36273 ft | 404 kts | 274° |
| 2026-04-21 20:17 | 30.78753 | -85.21467 | 36275 ft | 404 kts | 274° |
| 2026-04-21 20:18 | 30.78929 | -85.26912 | 36276 ft | 405 kts | 274° |
| 2026-04-21 20:18 | 30.79173 | -85.34530 | 36276 ft | 406 kts | 274° |
| 2026-04-21 20:19 | 30.79379 | -85.41079 | 35849 ft | 405 kts | 274° |
| 2026-04-21 20:19 | 30.79482 | -85.44380 | 35025 ft | 412 kts | 274° |
| 2026-04-21 20:19 | 30.79587 | -85.47750 | 33893 ft | 422 kts | 274° |
| 2026-04-21 20:19 | 30.79692 | -85.51159 | 32911 ft | 420 kts | 273° |
| 2026-04-21 20:20 | 30.79793 | -85.54512 | 32263 ft | 410 kts | 273° |
| 2026-04-21 20:20 | 30.79891 | -85.57796 | 31688 ft | 403 kts | 272° |
| 2026-04-21 20:20 | 30.79987 | -85.61027 | 31176 ft | 393 kts | 272° |
| 2026-04-21 20:20 | 30.80080 | -85.64160 | 30675 ft | 383 kts | 272° |
| 2026-04-21 20:21 | 30.80172 | -85.67290 | 30145 ft | 394 kts | 272° |
| 2026-04-21 20:21 | 30.80265 | -85.70465 | 29606 ft | 399 kts | 272° |
| 2026-04-21 20:21 | 30.80358 | -85.73681 | 29081 ft | 395 kts | 272° |
| 2026-04-21 20:21 | 30.80448 | -85.76841 | 28569 ft | 386 kts | 272° |
| 2026-04-21 20:22 | 30.80534 | -85.79917 | 28067 ft | 375 kts | 272° |
| 2026-04-21 20:22 | 30.80704 | -85.85989 | 27099 ft | 390 kts | 272° |
| 2026-04-21 20:22 | 30.80792 | -85.89174 | 26584 ft | 396 kts | 272° |
| 2026-04-21 20:23 | 30.80879 | -85.92371 | 26084 ft | 394 kts | 272° |
| 2026-04-21 20:23 | 30.80966 | -85.95540 | 25576 ft | 389 kts | 271° |
| 2026-04-21 20:23 | 30.81050 | -85.98650 | 25081 ft | 381 kts | 271° |
| 2026-04-21 20:23 | 30.81131 | -86.01697 | 24577 ft | 373 kts | 271° |
| 2026-04-21 20:24 | 30.81209 | -86.04679 | 24101 ft | 366 kts | 271° |
| 2026-04-21 20:24 | 30.81286 | -86.07613 | 23597 ft | 359 kts | 271° |
| 2026-04-21 20:24 | 30.81363 | -86.10558 | 23124 ft | 376 kts | 271° |
| 2026-04-21 20:24 | 30.81443 | -86.13664 | 22614 ft | 390 kts | 271° |
| 2026-04-21 20:25 | 30.81520 | -86.16830 | 22099 ft | 391 kts | 271° |
| 2026-04-21 20:25 | 30.81593 | -86.19979 | 21576 ft | 387 kts | 271° |
| 2026-04-21 20:25 | 30.81664 | -86.23081 | 21066 ft | 380 kts | 271° |
| 2026-04-21 20:25 | 30.81732 | -86.26104 | 20560 ft | 372 kts | 271° |
| 2026-04-21 20:26 | 30.81800 | -86.29091 | 19992 ft | 365 kts | 271° |
| 2026-04-21 20:26 | 30.81865 | -86.32026 | 19495 ft | 359 kts | 271° |
| 2026-04-21 20:26 | 30.81930 | -86.34901 | 19007 ft | 353 kts | 271° |
| 2026-04-21 20:26 | 30.81993 | -86.37735 | 18497 ft | 348 kts | 271° |
| 2026-04-21 20:27 | 30.82053 | -86.40524 | 17996 ft | 345 kts | 271° |
| 2026-04-21 20:27 | 30.82116 | -86.43429 | 17483 ft | 372 kts | 271° |
| 2026-04-21 20:27 | 30.82182 | -86.46483 | 17074 ft | 379 kts | 271° |
| 2026-04-21 20:27 | 30.82248 | -86.49507 | 16959 ft | 368 kts | 271° |
| 2026-04-21 20:28 | 30.82310 | -86.52420 | 16822 ft | 353 kts | 271° |
| 2026-04-21 20:28 | 30.82368 | -86.55200 | 16654 ft | 335 kts | 270° |
| 2026-04-21 20:28 | 30.82421 | -86.57836 | 16486 ft | 317 kts | 270° |
| 2026-04-21 20:28 | 30.82472 | -86.60330 | 16332 ft | 300 kts | 270° |
| 2026-04-21 20:29 | 30.82520 | -86.62689 | 16166 ft | 284 kts | 270° |
| 2026-04-21 20:29 | 30.82564 | -86.64951 | 15755 ft | 278 kts | 270° |
| 2026-04-21 20:29 | 30.82607 | -86.67199 | 15247 ft | 278 kts | 270° |
| 2026-04-21 20:29 | 30.82723 | -86.69438 | 14755 ft | 276 kts | 282° |
| 2026-04-21 20:30 | 30.83530 | -86.71424 | 14409 ft | 275 kts | 310° |
| 2026-04-21 20:30 | 30.85059 | -86.72766 | 14195 ft | 281 kts | 338° |
| 2026-04-21 20:30 | 30.86961 | -86.73169 | 13937 ft | 280 kts | 5° |
| 2026-04-21 20:30 | 30.88797 | -86.72538 | 13673 ft | 275 kts | 33° |
| 2026-04-21 20:31 | 30.90155 | -86.71057 | 13425 ft | 271 kts | 59° |
| 2026-04-21 20:31 | 30.90885 | -86.69069 | 13170 ft | 266 kts | 82° |
| 2026-04-21 20:31 | 30.90948 | -86.66939 | 12912 ft | 263 kts | 95° |
| 2026-04-21 20:31 | 30.90864 | -86.64818 | 12664 ft | 261 kts | 94° |
| 2026-04-21 20:32 | 30.90804 | -86.62712 | 12412 ft | 259 kts | 93° |
| 2026-04-21 20:32 | 30.90754 | -86.60620 | 12166 ft | 257 kts | 93° |
| 2026-04-21 20:32 | 30.90706 | -86.58547 | 11918 ft | 256 kts | 92° |
| 2026-04-21 20:32 | 30.90658 | -86.56478 | 11668 ft | 255 kts | 92° |
| 2026-04-21 20:33 | 30.90609 | -86.54419 | 11434 ft | 254 kts | 94° |
| 2026-04-21 20:33 | 30.90208 | -86.52446 | 11191 ft | 251 kts | 116° |
| 2026-04-21 20:33 | 30.89170 | -86.50836 | 10933 ft | 250 kts | 140° |
| 2026-04-21 20:33 | 30.87652 | -86.49860 | 10695 ft | 253 kts | 163° |
| 2026-04-21 20:34 | 30.85899 | -86.49696 | 10469 ft | 257 kts | 188° |
| 2026-04-21 20:34 | 30.84222 | -86.50411 | 10235 ft | 260 kts | 213° |
| 2026-04-21 20:34 | 30.82943 | -86.51897 | 9972 ft | 262 kts | 239° |
| 2026-04-21 20:34 | 30.82331 | -86.53869 | 9726 ft | 262 kts | 264° |
| 2026-04-21 20:35 | 30.82338 | -86.55988 | 9458 ft | 262 kts | 273° |
| 2026-04-21 20:35 | 30.82406 | -86.58102 | 9212 ft | 261 kts | 272° |
| 2026-04-21 20:35 | 30.82466 | -86.60216 | 8956 ft | 260 kts | 272° |
| 2026-04-21 20:35 | 30.82517 | -86.62308 | 8687 ft | 258 kts | 272° |
| 2026-04-21 20:36 | 30.82561 | -86.64394 | 8428 ft | 258 kts | 271° |
| 2026-04-21 20:36 | 30.82607 | -86.66485 | 8186 ft | 259 kts | 272° |
| 2026-04-21 20:36 | 30.82655 | -86.68568 | 7943 ft | 257 kts | 271° |
| 2026-04-21 20:36 | 30.82589 | -86.70743 | 7828 ft | 285 kts | 266° |
| 2026-04-21 20:37 | 30.82433 | -86.73124 | 7767 ft | 301 kts | 265° |
| 2026-04-21 20:37 | 30.82268 | -86.75548 | 7693 ft | 297 kts | 265° |
| 2026-04-21 20:37 | 30.82116 | -86.77908 | 7440 ft | 289 kts | 265° |
| 2026-04-21 20:37 | 30.81978 | -86.80227 | 6940 ft | 287 kts | 266° |
| 2026-04-21 20:38 | 30.81845 | -86.82542 | 6412 ft | 286 kts | 266° |
| 2026-04-21 20:38 | 30.81717 | -86.84847 | 5909 ft | 283 kts | 266° |
| 2026-04-21 20:38 | 30.81596 | -86.87088 | 5418 ft | 280 kts | 266° |
| 2026-04-21 20:38 | 30.81476 | -86.89328 | 4941 ft | 275 kts | 266° |
| 2026-04-21 20:39 | 30.81354 | -86.91539 | 4429 ft | 272 kts | 265° |
| 2026-04-21 20:39 | 30.81234 | -86.93724 | 3917 ft | 270 kts | 265° |
| 2026-04-21 20:39 | 30.81114 | -86.95895 | 3461 ft | 267 kts | 264° |
| 2026-04-21 20:39 | 30.80996 | -86.98027 | 3102 ft | 259 kts | 264° |
| 2026-04-21 20:40 | 30.80874 | -87.00164 | 3047 ft | 271 kts | 264° |
| 2026-04-21 20:40 | 30.80744 | -87.02313 | 2976 ft | 260 kts | 264° |
| 2026-04-21 20:40 | 30.80626 | -87.04436 | 2968 ft | 265 kts | 264° |
| 2026-04-21 20:40 | 30.80502 | -87.06527 | 2987 ft | 253 kts | 264° |
| 2026-04-21 20:41 | 30.80393 | -87.08522 | 3004 ft | 246 kts | 264° |
| 2026-04-21 20:41 | 30.80289 | -87.10515 | 2972 ft | 244 kts | 264° |
| 2026-04-21 20:41 | 30.80183 | -87.12485 | 2998 ft | 246 kts | 264° |
| 2026-04-21 20:41 | 30.80079 | -87.14411 | 2982 ft | 238 kts | 263° |
| 2026-04-21 20:42 | 30.79973 | -87.16387 | 2964 ft | 251 kts | 264° |
| 2026-04-21 20:42 | 30.79858 | -87.18378 | 2977 ft | 244 kts | 263° |
| 2026-04-21 20:42 | 30.79743 | -87.20340 | 3014 ft | 246 kts | 265° |
| 2026-04-21 20:42 | 30.79637 | -87.22329 | 2968 ft | 242 kts | 263° |
| 2026-04-21 20:43 | 30.79389 | -87.24271 | 2977 ft | 243 kts | 245° |
| 2026-04-21 20:43 | 30.78428 | -87.25827 | 2975 ft | 237 kts | 214° |
| 2026-04-21 20:43 | 30.76951 | -87.26547 | 2979 ft | 231 kts | 183° |
| 2026-04-21 20:43 | 30.75376 | -87.26389 | 2998 ft | 224 kts | 166° |
| 2026-04-21 20:44 | 30.73883 | -87.25951 | 2976 ft | 220 kts | 165° |
| 2026-04-21 20:44 | 30.72439 | -87.25547 | 2994 ft | 207 kts | 166° |
| 2026-04-21 20:44 | 30.71058 | -87.25188 | 3106 ft | 199 kts | 166° |
| 2026-04-21 20:44 | 30.69666 | -87.24806 | 2953 ft | 211 kts | 165° |
| 2026-04-21 20:45 | 30.68248 | -87.24418 | 2993 ft | 210 kts | 166° |
| 2026-04-21 20:45 | 30.66860 | -87.24047 | 3007 ft | 195 kts | 166° |
| 2026-04-21 20:45 | 30.66004 | -87.23816 | 2988 ft | 184 kts | 166° |
| 2026-04-21 20:45 | 30.64830 | -87.23501 | 2985 ft | 163 kts | 165° |
| 2026-04-21 20:46 | 30.63803 | -87.23225 | 2995 ft | 136 kts | 166° |
| 2026-04-21 20:46 | 30.62967 | -87.23001 | 2968 ft | 117 kts | 165° |
| 2026-04-21 20:46 | 30.62115 | -87.22768 | 2881 ft | 133 kts | 165° |
| 2026-04-21 20:46 | 30.61218 | -87.22530 | 2719 ft | 130 kts | 165° |
| 2026-04-21 20:47 | 30.60335 | -87.22293 | 2528 ft | 131 kts | 166° |
| 2026-04-21 20:47 | 30.59471 | -87.22061 | 2359 ft | 123 kts | 166° |
| 2026-04-21 20:47 | 30.58627 | -87.21831 | 2203 ft | 127 kts | 167° |
| 2026-04-21 20:47 | 30.57757 | -87.21600 | 2047 ft | 127 kts | 166° |
| 2026-04-21 20:48 | 30.56888 | -87.21369 | 1875 ft | 129 kts | 168° |
| 2026-04-21 20:48 | 30.56035 | -87.21139 | 1698 ft | 122 kts | 166° |
| 2026-04-21 20:48 | 30.55188 | -87.20912 | 1534 ft | 127 kts | 167° |
| 2026-04-21 20:48 | 30.54342 | -87.20686 | 1362 ft | 123 kts | 165° |
| 2026-04-21 20:49 | 30.53494 | -87.20457 | 1209 ft | 129 kts | 166° |
| 2026-04-21 20:49 | 30.52619 | -87.20230 | 1029 ft | 130 kts | 166° |
| 2026-04-21 20:49 | 30.51748 | -87.19985 | 848 ft | 126 kts | 166° |
| 2026-04-21 20:49 | 30.50921 | -87.19749 | 699 ft | 122 kts | 168° |
| 2026-04-21 20:50 | 30.50044 | -87.19540 | 535 ft | 129 kts | 166° |
| 2026-04-21 20:50 | 30.49197 | -87.19301 | 333 ft | 123 kts | 169° |
| 2026-04-21 20:50 | 30.48374 | -87.19081 | 192 ft | 119 kts | 171° |
| 2026-04-21 20:50 | 30.47630 | -87.18891 | 116 ft | 79 kts | 167° |
| 2026-04-21 20:51 | 30.47348 | -87.18814 | 110 ft | 25 kts | 167° |
| 2026-04-21 20:51 | 30.47201 | -87.18778 | 112 ft | 14 kts | 179° |
| 2026-04-21 20:51 | 30.47158 | -87.18856 | 111 ft | 13 kts | 255° |
| 2026-04-21 20:51 | 30.47167 | -87.18913 | 109 ft | 7 kts | 311° |
| 2026-04-21 20:52 | 30.47225 | -87.18942 | 109 ft | 12 kts | 348° |
| 2026-04-21 20:52 | 30.47328 | -87.18969 | 109 ft | 18 kts | 347° |
| 2026-04-21 20:52 | 30.47411 | -87.19042 | 109 ft | 15 kts | 300° |
| 2026-04-21 20:52 | 30.47460 | -87.19143 | 113 ft | 10 kts | 265° |
| 2026-04-21 20:53 | 30.47493 | -87.19181 | 111 ft | 4 kts | 342° |
| 2026-04-21 20:53 | 30.47494 | -87.19181 | 114 ft | 0 kts | 342° |